Time;durP1;ratioP1;P1;durP2;ratioP2;P2;SDS_P1;SDS_P2;PMS_P1;PMS_P2;Temp;Humidity;BMP_temperature;BMP_pressure;BME280_temperature;BME280_humidity;BME280_pressure;Samples;Min_cycle;Max_cycle;Signal;HPM_P1;HPM_P2
2023/12/05 00:03:18;;;;;;;36.00;15.07;;;;;;;;;;8503070;27;20044;-90
2023/12/05 00:07:22;;;;;;;45.70;16.73;;;;;;;;;;8502893;27;20124;-90
2023/12/05 00:11:27;;;;;;;46.15;20.33;;;;;;;;;;8503057;27;20486;-90
2023/12/05 00:15:31;;;;;;;37.00;18.38;;;;;;;;;;8502292;27;20055;-90
2023/12/05 00:19:35;;;;;;;37.88;17.98;;;;;;;;;;8502711;27;20043;-90
2023/12/05 00:23:38;;;;;;;43.67;20.63;;;;;;;;;;8502300;27;20046;-90
2023/12/05 00:27:41;;;;;;;45.70;19.02;;;;;;;;;;8502142;27;20084;-90
2023/12/05 00:31:45;;;;;;;34.92;15.52;;;;;;;;;;8501864;27;20502;-90
2023/12/05 00:35:48;;;;;;;45.08;18.15;;;;;;;;;;8501759;27;20070;-90
2023/12/05 00:39:54;;;;;;;74.10;28.13;;;;;;;;;;8483803;27;20140;-90
2023/12/05 00:43:57;;;;;;;95.78;32.17;;;;;;;;;;8502198;27;20110;-90
2023/12/05 00:48:01;;;;;;;24.50;11.63;;;;;;;;;;8501321;27;20505;-90
2023/12/05 00:52:05;;;;;;;42.55;21.48;;;;;;;;;;8501432;27;20070;-90
2023/12/05 00:56:11;;;;;;;26.23;12.57;;;;;;;;;;8501276;27;20047;-90
2023/12/05 01:00:15;;;;;;;44.42;18.25;;;;;;;;;;8501341;27;20047;-90
2023/12/05 01:04:19;;;;;;;34.55;13.77;;;;;;;;;;8501041;27;20051;-90
2023/12/05 01:08:22;;;;;;;37.45;14.10;;;;;;;;;;8500834;27;20047;-90
2023/12/05 01:12:34;;;;;;;39.30;15.02;;;;;;;;;;8501010;27;20043;-90
2023/12/05 01:16:43;;;;;;;31.48;13.77;;;;;;;;;;8432904;28;20048;-91
2023/12/05 01:20:47;;;;;;;53.88;21.98;;;;;;;;;;8432116;28;20067;-90
2023/12/05 01:24:55;;;;;;;30.83;14.48;;;;;;;;;;8432671;28;20115;-91
2023/12/05 01:28:57;;;;;;;43.30;20.70;;;;;;;;;;8432581;28;20051;-91
2023/12/05 01:33:01;;;;;;;49.53;21.27;;;;;;;;;;8432287;28;20206;-91
2023/12/05 01:37:05;;;;;;;36.75;16.42;;;;;;;;;;8432094;28;20142;-91
2023/12/05 01:41:08;;;;;;;37.05;16.52;;;;;;;;;;8432095;28;20051;-91
2023/12/05 01:45:12;;;;;;;37.58;15.48;;;;;;;;;;8431904;28;20188;-92
2023/12/05 01:49:15;;;;;;;28.42;13.20;;;;;;;;;;8431850;28;20036;-91
2023/12/05 01:53:20;;;;;;;34.33;15.32;;;;;;;;;;8432302;28;20044;-91
2023/12/05 01:57:24;;;;;;;35.60;12.02;;;;;;;;;;8431937;28;20044;-92
2023/12/05 02:01:27;;;;;;;27.05;13.02;;;;;;;;;;8432140;28;20051;-90
2023/12/05 02:05:30;;;;;;;14.45;6.60;;;;;;;;;;8431350;28;20101;-90
2023/12/05 02:09:56;;;;;;;39.60;16.15;;;;;;;;;;8433009;28;20052;-90
2023/12/05 02:13:59;;;;;;;9.98;5.05;;;;;;;;;;8454553;27;20047;-91
2023/12/05 02:18:36;;;;;;;24.58;10.52;;;;;;;;;;8515919;27;20440;-92
2023/12/05 02:23:08;;;;;;;31.77;13.65;;;;;;;;;;8521299;27;20493;-93
2023/12/05 02:27:34;;;;;;;36.05;15.27;;;;;;;;;;8518237;27;20580;-91
2023/12/05 02:31:47;;;;;;;25.08;10.77;;;;;;;;;;8499452;27;20096;-91
2023/12/05 02:35:59;;;;;;;34.65;14.73;;;;;;;;;;8498282;27;20138;-92
2023/12/05 02:40:10;;;;;;;;;;;;;;;;;;8480934;27;20479;-91
2023/12/05 02:44:40;;;;;;;28.25;12.02;;;;;;;;;;8530746;27;19904;-92
2023/12/05 02:48:45;;;;;;;31.13;12.80;;;;;;;;;;8511374;27;20135;-91
2023/12/05 02:52:48;;;;;;;35.13;14.52;;;;;;;;;;8503071;27;20039;-92
2023/12/05 02:56:51;;;;;;;41.92;17.70;;;;;;;;;;8498202;27;20554;-92
2023/12/05 03:00:56;;;;;;;35.83;14.65;;;;;;;;;;8497535;27;20409;-92
2023/12/05 03:04:59;;;;;;;50.80;17.60;;;;;;;;;;8497258;27;20082;-91
2023/12/05 03:09:03;;;;;;;43.53;16.13;;;;;;;;;;8504143;27;20039;-91
2023/12/05 03:13:06;;;;;;;39.35;17.88;;;;;;;;;;8496898;27;20168;-91
2023/12/05 03:17:10;;;;;;;36.15;13.45;;;;;;;;;;8497848;28;20050;-92
2023/12/05 03:21:17;;;;;;;40.67;19.20;;;;;;;;;;8499251;28;20059;-92
2023/12/05 03:29:37;;;;;;;37.13;15.32;;;;;;;;;;8495700;28;20054;-91
2023/12/05 03:33:42;;;;;;;24.65;12.00;;;;;;;;;;8496947;28;20047;-89
2023/12/05 03:37:44;;;;;;;49.45;17.58;;;;;;;;;;8496652;28;20133;-91
2023/12/05 03:41:47;;;;;;;40.92;17.10;;;;;;;;;;8496617;28;20112;-91
2023/12/05 03:45:50;;;;;;;44.50;15.77;;;;;;;;;;8497732;28;20050;-89
2023/12/05 03:49:57;;;;;;;32.60;15.45;;;;;;;;;;8497228;28;20043;-91
2023/12/05 03:53:59;;;;;;;38.33;18.80;;;;;;;;;;8496548;28;20485;-88
2023/12/05 03:58:03;;;;;;;34.60;16.67;;;;;;;;;;8496336;28;20047;-91
2023/12/05 04:02:06;;;;;;;38.72;17.52;;;;;;;;;;8496725;28;20091;-92
2023/12/05 04:06:20;;;;;;;42.33;18.77;;;;;;;;;;8496465;28;20403;-90
2023/12/05 04:10:23;;;;;;;42.75;18.40;;;;;;;;;;8499791;28;20544;-91
2023/12/05 04:14:26;;;;;;;38.95;13.98;;;;;;;;;;8496126;28;20059;-92
2023/12/05 04:18:29;;;;;;;35.15;15.60;;;;;;;;;;8496484;28;20047;-92
2023/12/05 04:22:34;;;;;;;31.98;15.95;;;;;;;;;;8500441;27;20060;-91
2023/12/05 04:26:47;;;;;;;36.78;17.10;;;;;;;;;;8502443;27;20483;-91
2023/12/05 04:30:50;;;;;;;34.08;15.48;;;;;;;;;;8502217;27;20122;-91
2023/12/05 04:34:53;;;;;;;31.45;14.23;;;;;;;;;;8502251;27;20561;-92
2023/12/05 04:38:58;;;;;;;34.05;15.43;;;;;;;;;;8502230;27;20450;-90
2023/12/05 04:43:01;;;;;;;45.00;17.67;;;;;;;;;;8502576;27;20174;-89
2023/12/05 04:47:04;;;;;;;36.35;14.98;;;;;;;;;;8502678;27;20788;-90
2023/12/05 04:51:08;;;;;;;47.13;20.88;;;;;;;;;;8503816;27;20516;-90
2023/12/05 04:55:12;;;;;;;77.35;25.38;;;;;;;;;;8505144;27;20050;-91
2023/12/05 04:59:15;;;;;;;33.30;14.48;;;;;;;;;;8491017;27;20066;-91
2023/12/05 05:03:18;;;;;;;76.93;31.55;;;;;;;;;;8488267;27;20035;-91
2023/12/05 05:07:21;;;;;;;51.47;22.80;;;;;;;;;;8507456;27;20039;-92
2023/12/05 05:11:25;;;;;;;28.73;15.15;;;;;;;;;;8504046;27;20122;-91
2023/12/05 05:15:28;;;;;;;51.35;23.83;;;;;;;;;;8501540;27;20096;-90
2023/12/05 05:19:31;;;;;;;100.90;31.92;;;;;;;;;;8500915;27;20043;-89
2023/12/05 05:23:46;;;;;;;256.67;61.97;;;;;;;;;;8500475;27;20058;-91
2023/12/05 05:27:51;;;;;;;51.90;23.42;;;;;;;;;;8501476;27;20046;-89
2023/12/05 05:31:54;;;;;;;74.28;30.35;;;;;;;;;;8500773;27;20418;-90
2023/12/05 05:40:16;;;;;;;60.72;22.88;;;;;;;;;;8494460;27;20043;-90
2023/12/05 05:44:21;;;;;;;51.22;22.00;;;;;;;;;;8501133;27;20096;-90
2023/12/05 05:48:24;;;;;;;109.68;30.05;;;;;;;;;;8503525;27;20050;-90
2023/12/05 05:52:36;;;;;;;47.40;20.15;;;;;;;;;;8482706;27;20059;-90
2023/12/05 05:56:40;;;;;;;41.33;16.75;;;;;;;;;;8505909;27;20043;-89
2023/12/05 06:00:49;;;;;;;58.83;24.42;;;;;;;;;;8505811;27;20043;-89
2023/12/05 06:04:54;;;;;;;67.28;26.00;;;;;;;;;;8500855;27;20050;-90
2023/12/05 06:09:09;;;;;;;55.30;24.45;;;;;;;;;;8498698;27;20035;-88
2023/12/05 06:13:12;;;;;;;54.88;23.55;;;;;;;;;;8498359;27;20089;-88
2023/12/05 06:17:16;;;;;;;46.65;21.20;;;;;;;;;;8498513;27;20130;-89
2023/12/05 06:21:19;;;;;;;32.00;13.50;;;;;;;;;;8498893;27;20050;-89
2023/12/05 06:25:22;;;;;;;52.05;21.55;;;;;;;;;;8498636;27;20047;-90
2023/12/05 06:29:28;;;;;;;39.50;15.95;;;;;;;;;;8480587;27;20674;-90
2023/12/05 06:33:32;;;;;;;46.67;20.85;;;;;;;;;;8498091;27;20140;-89
2023/12/05 06:37:35;;;;;;;61.05;22.52;;;;;;;;;;8497896;27;20402;-89
2023/12/05 06:41:38;;;;;;;69.05;27.25;;;;;;;;;;8497881;27;20046;-90
2023/12/05 06:45:47;;;;;;;150.50;42.45;;;;;;;;;;8497399;27;20047;-89
2023/12/05 06:49:54;;;;;;;144.23;40.85;;;;;;;;;;8498007;27;20043;-90
2023/12/05 06:53:57;;;;;;;125.15;31.77;;;;;;;;;;8497847;27;20047;-91
2023/12/05 06:58:12;;;;;;;118.95;33.22;;;;;;;;;;8497585;27;20043;-90
2023/12/05 07:02:16;;;;;;;140.23;36.65;;;;;;;;;;8498086;27;20134;-90
2023/12/05 07:06:22;;;;;;;99.50;33.08;;;;;;;;;;8499812;27;20506;-90
2023/12/05 07:10:25;;;;;;;81.57;28.38;;;;;;;;;;8481569;27;20437;-90
2023/12/05 07:14:31;;;;;;;78.47;27.95;;;;;;;;;;8499578;27;20155;-91
2023/12/05 07:18:43;;;;;;;51.53;23.00;;;;;;;;;;8500876;28;20066;-91
2023/12/05 07:22:47;;;;;;;;;;;;;;;;;;8497477;28;20047;-91
2023/12/05 07:26:53;;;;;;;92.55;32.17;;;;;;;;;;8498993;28;20363;-90
2023/12/05 07:30:56;;;;;;;43.40;21.55;;;;;;;;;;8497654;28;20486;-90
2023/12/05 07:43:49;;;;;;;43.80;18.08;;;;;;;;;;8493471;28;20607;-91
2023/12/05 07:47:52;;;;;;;33.10;18.25;;;;;;;;;;8496984;28;20070;-91
2023/12/05 07:51:55;;;;;;;28.83;14.82;;;;;;;;;;8501335;28;20039;-91
2023/12/05 07:56:01;;;;;;;32.17;16.15;;;;;;;;;;8537693;27;20047;-91
2023/12/05 08:00:09;;;;;;;35.72;12.55;;;;;;;;;;8504378;27;20043;-91
2023/12/05 08:04:12;;;;;;;48.92;18.98;;;;;;;;;;8504412;27;20051;-90
2023/12/05 08:08:15;;;;;;;24.83;9.63;;;;;;;;;;8502811;27;20081;-91
2023/12/05 08:12:20;;;;;;;51.92;21.40;;;;;;;;;;8502638;27;20043;-91
2023/12/05 08:16:23;;;;;;;48.28;20.80;;;;;;;;;;8502760;27;20051;-91
2023/12/05 08:20:25;;;;;;;35.15;15.48;;;;;;;;;;8502557;27;20091;-90
2023/12/05 08:24:28;;;;;;;53.28;22.80;;;;;;;;;;8502188;27;20047;-91
2023/12/05 08:28:34;;;;;;;55.90;21.92;;;;;;;;;;8502220;27;20043;-92
2023/12/05 08:32:37;;;;;;;50.65;18.48;;;;;;;;;;8502095;27;20043;-91
2023/12/05 08:36:44;;;;;;;60.47;23.38;;;;;;;;;;8502178;27;20042;-92
2023/12/05 08:40:47;;;;;;;39.92;16.65;;;;;;;;;;8501917;27;20414;-92
2023/12/05 08:44:51;;;;;;;46.75;20.98;;;;;;;;;;8501503;27;20401;-91
2023/12/05 08:48:55;;;;;;;48.00;20.65;;;;;;;;;;8501489;27;20118;-92
2023/12/05 08:52:58;;;;;;;43.53;18.05;;;;;;;;;;8501498;27;20043;-91
2023/12/05 08:57:01;;;;;;;34.70;17.15;;;;;;;;;;8501183;27;20506;-89
2023/12/05 09:01:06;;;;;;;61.05;23.83;;;;;;;;;;8501066;27;20047;-92
2023/12/05 09:05:09;;;;;;;42.13;19.13;;;;;;;;;;8500915;27;20049;-91
2023/12/05 09:09:12;;;;;;;32.15;16.52;;;;;;;;;;8482738;27;20069;-90
2023/12/05 09:13:15;;;;;;;34.25;16.38;;;;;;;;;;8500346;27;20142;-89
2023/12/05 09:17:20;;;;;;;36.72;18.98;;;;;;;;;;8500351;27;20494;-89
2023/12/05 09:21:23;;;;;;;31.63;16.77;;;;;;;;;;8500687;27;20065;-88
2023/12/05 09:25:26;;;;;;;52.10;22.38;;;;;;;;;;8500125;27;20050;-89
2023/12/05 09:29:29;;;;;;;48.40;23.02;;;;;;;;;;8500123;27;20047;-89
2023/12/05 09:33:34;;;;;;;43.78;19.27;;;;;;;;;;8499986;27;20541;-89
2023/12/05 09:37:37;;;;;;;38.90;17.67;;;;;;;;;;8499629;27;20126;-90
2023/12/05 09:41:48;;;;;;;39.53;20.48;;;;;;;;;;8499717;27;20043;-88
2023/12/05 09:45:59;;;;;;;37.60;19.13;;;;;;;;;;8499829;27;20054;-88
2023/12/05 09:50:04;;;;;;;50.73;23.00;;;;;;;;;;8499541;27;20415;-89
2023/12/05 09:54:07;;;;;;;35.13;19.20;;;;;;;;;;8500039;27;20341;-89
2023/12/05 09:58:12;;;;;;;40.92;20.38;;;;;;;;;;8498933;27;20116;-89
2023/12/05 10:02:18;;;;;;;32.28;17.45;;;;;;;;;;8499137;27;20088;-89
2023/12/05 10:06:26;;;;;;;32.92;17.98;;;;;;;;;;8499500;27;20169;-89
2023/12/05 10:10:33;;;;;;;34.55;17.77;;;;;;;;;;8499174;27;20115;-90
2023/12/05 10:14:36;;;;;;;30.17;16.42;;;;;;;;;;8498653;27;20058;-90
2023/12/05 10:18:40;;;;;;;30.88;17.35;;;;;;;;;;8497913;27;20046;-90
2023/12/05 10:22:45;;;;;;;34.42;18.98;;;;;;;;;;8498682;27;20638;-89
2023/12/05 10:26:48;;;;;;;36.08;19.35;;;;;;;;;;8498479;27;20036;-89
2023/12/05 10:30:51;;;;;;;39.97;19.33;;;;;;;;;;8498754;27;20440;-89
2023/12/05 10:34:56;;;;;;;41.40;19.55;;;;;;;;;;8498406;27;20089;-89
2023/12/05 10:39:02;;;;;;;33.80;17.27;;;;;;;;;;8498073;27;20043;-89
2023/12/05 10:43:05;;;;;;;29.23;15.32;;;;;;;;;;8498123;27;20073;-91
2023/12/05 10:47:10;;;;;;;33.38;16.35;;;;;;;;;;8497904;27;20043;-92
2023/12/05 10:51:14;;;;;;;41.08;17.98;;;;;;;;;;8498297;27;20046;-90
2023/12/05 10:55:25;;;;;;;38.30;15.93;;;;;;;;;;8497795;27;20479;-89
2023/12/05 10:59:29;;;;;;;50.25;22.52;;;;;;;;;;8497636;27;20607;-90
2023/12/05 11:03:33;;;;;;;28.38;14.40;;;;;;;;;;8497437;27;20375;-89
2023/12/05 11:07:36;;;;;;;32.38;15.73;;;;;;;;;;8497416;27;20039;-89
2023/12/05 11:11:41;;;;;;;27.67;13.07;;;;;;;;;;8497152;27;20126;-89
2023/12/05 11:15:48;;;;;;;29.10;13.57;;;;;;;;;;8497120;27;20083;-89
2023/12/05 11:20:08;;;;;;;34.83;15.20;;;;;;;;;;8497520;28;20043;-89
2023/12/05 11:24:37;;;;;;;29.15;13.88;;;;;;;;;;8497098;28;20557;-89
2023/12/05 11:29:03;;;;;;;40.03;15.82;;;;;;;;;;8496866;28;20473;-90
2023/12/05 11:33:16;;;;;;;26.75;14.35;;;;;;;;;;8504944;27;20050;-89
2023/12/05 11:37:29;;;;;;;30.73;14.50;;;;;;;;;;8503782;27;20122;-89
2023/12/05 11:41:32;;;;;;;40.63;16.13;;;;;;;;;;8503926;27;20543;-92
2023/12/05 11:45:41;;;;;;;33.75;15.23;;;;;;;;;;8503818;27;20070;-90
2023/12/05 11:49:56;;;;;;;77.80;24.25;;;;;;;;;;8486036;27;20108;-89
2023/12/05 11:54:01;;;;;;;34.67;16.85;;;;;;;;;;8502945;27;20566;-89
2023/12/05 11:58:04;;;;;;;32.10;14.75;;;;;;;;;;8503667;27;20043;-90
2023/12/05 12:02:12;;;;;;;60.88;20.45;;;;;;;;;;8503404;27;20076;-90
2023/12/05 12:06:17;;;;;;;33.55;13.80;;;;;;;;;;8502964;27;20502;-90
2023/12/05 12:10:21;;;;;;;63.90;22.33;;;;;;;;;;8502745;27;20530;-91
2023/12/05 12:14:24;;;;;;;29.23;14.73;;;;;;;;;;8502722;27;20051;-90
2023/12/05 12:18:29;;;;;;;34.13;14.52;;;;;;;;;;8502352;27;20043;-90
2023/12/05 12:22:32;;;;;;;33.03;14.73;;;;;;;;;;8502953;27;20043;-90
2023/12/05 12:26:35;;;;;;;30.38;14.70;;;;;;;;;;8503609;27;20418;-89
2023/12/05 12:30:38;;;;;;;66.25;27.25;;;;;;;;;;8502407;27;20110;-89
2023/12/05 12:34:45;;;;;;;28.98;14.95;;;;;;;;;;8502431;27;20054;-89
2023/12/05 12:38:49;;;;;;;32.47;14.88;;;;;;;;;;8503150;27;20123;-89
2023/12/05 12:42:54;;;;;;;70.20;24.65;;;;;;;;;;8501443;27;20047;-92
2023/12/05 12:46:58;;;;;;;32.97;15.85;;;;;;;;;;8501613;27;20641;-91
2023/12/05 12:51:03;;;;;;;33.63;14.63;;;;;;;;;;8501962;27;20043;-90
2023/12/05 12:55:08;;;;;;;30.88;13.25;;;;;;;;;;8501779;27;20047;-91
2023/12/05 12:59:11;;;;;;;27.58;13.38;;;;;;;;;;8501294;27;20481;-92
2023/12/05 13:03:15;;;;;;;41.17;16.80;;;;;;;;;;8502371;27;20547;-90
2023/12/05 13:07:25;;;;;;;31.75;15.35;;;;;;;;;;8486599;27;20047;-92
2023/12/05 13:11:29;;;;;;;34.25;14.23;;;;;;;;;;8505125;27;20067;-88
2023/12/05 13:15:33;;;;;;;31.92;15.95;;;;;;;;;;8510660;27;20507;-89
2023/12/05 13:19:38;;;;;;;35.95;17.67;;;;;;;;;;8501371;27;20053;-93
2023/12/05 13:23:43;;;;;;;39.13;17.35;;;;;;;;;;8500489;27;20129;-90
2023/12/05 13:27:46;;;;;;;29.27;13.50;;;;;;;;;;8500434;27;20134;-91
2023/12/05 13:31:49;;;;;;;40.65;17.30;;;;;;;;;;8500291;27;20047;-90
2023/12/05 13:35:53;;;;;;;25.80;12.68;;;;;;;;;;8500166;27;20047;-91
2023/12/05 13:40:00;;;;;;;29.52;14.23;;;;;;;;;;8500032;27;20039;-90
2023/12/05 13:44:06;;;;;;;33.53;14.95;;;;;;;;;;8500059;27;20043;-91
2023/12/05 13:48:09;;;;;;;31.52;15.90;;;;;;;;;;8499970;27;20702;-91
2023/12/05 13:52:11;;;;;;;32.33;15.60;;;;;;;;;;8499321;27;20050;-91
2023/12/05 13:56:16;;;;;;;33.88;16.08;;;;;;;;;;8498780;27;20043;-91
2023/12/05 14:00:19;;;;;;;47.45;21.08;;;;;;;;;;8499150;27;20051;-90
2023/12/05 14:04:22;;;;;;;42.83;17.45;;;;;;;;;;8499322;27;20047;-91
2023/12/05 14:08:25;;;;;;;39.65;17.98;;;;;;;;;;8499060;27;20053;-90
2023/12/05 14:12:33;;;;;;;42.60;17.05;;;;;;;;;;8498874;27;20551;-91
2023/12/05 14:16:36;;;;;;;35.85;19.13;;;;;;;;;;8498478;27;20111;-90
2023/12/05 14:20:44;;;;;;;39.75;19.25;;;;;;;;;;8498701;27;20077;-91
2023/12/05 14:24:51;;;;;;;;;;;;;;;;;;8481164;27;20092;-90
2023/12/05 14:28:55;;;;;;;37.13;17.02;;;;;;;;;;8503904;27;20362;-92
2023/12/05 14:32:59;;;;;;;32.20;16.73;;;;;;;;;;8512267;27;20486;-89
2023/12/05 14:37:02;;;;;;;40.50;17.80;;;;;;;;;;8515005;27;20064;-91
2023/12/05 14:41:07;;;;;;;42.72;20.50;;;;;;;;;;8501619;27;20050;-91
2023/12/05 14:45:11;;;;;;;60.45;25.98;;;;;;;;;;8497964;27;20099;-90
2023/12/05 14:49:15;;;;;;;111.45;35.10;;;;;;;;;;8498299;27;20064;-91
2023/12/05 14:53:19;;;;;;;31.35;14.98;;;;;;;;;;8497615;27;20050;-89
2023/12/05 14:57:25;;;;;;;73.18;27.33;;;;;;;;;;8497510;27;20384;-90
2023/12/05 15:01:29;;;;;;;88.82;37.53;;;;;;;;;;8497523;27;20129;-91
2023/12/05 15:05:32;;;;;;;37.75;18.83;;;;;;;;;;8496894;27;20080;-90
2023/12/05 15:09:35;;;;;;;58.88;25.90;;;;;;;;;;8497241;27;20426;-90
2023/12/05 15:13:39;;;;;;;101.72;43.20;;;;;;;;;;8496971;27;20139;-90
2023/12/05 15:17:46;;;;;;;70.43;33.70;;;;;;;;;;8496917;27;20126;-90
2023/12/05 15:21:49;;;;;;;68.00;33.67;;;;;;;;;;8497014;28;20210;-90
2023/12/05 15:25:54;;;;;;;46.72;23.92;;;;;;;;;;8497355;28;20054;-90
2023/12/05 15:30:00;;;;;;;95.30;38.13;;;;;;;;;;8498871;28;20130;-90
2023/12/05 15:38:37;;;;;;;227.73;83.53;;;;;;;;;;8507184;28;20080;-90
2023/12/05 15:42:44;;;;;;;93.47;38.38;;;;;;;;;;8496856;28;20058;-90
2023/12/05 15:46:47;;;;;;;77.72;32.10;;;;;;;;;;8497052;28;20047;-90
2023/12/05 15:50:52;;;;;;;58.65;22.98;;;;;;;;;;8496438;28;20047;-90
2023/12/05 15:54:55;;;;;;;50.13;23.90;;;;;;;;;;8496904;28;20108;-89
2023/12/05 15:58:59;;;;;;;47.58;23.35;;;;;;;;;;8496211;28;20047;-90
2023/12/05 16:03:03;;;;;;;86.40;34.10;;;;;;;;;;8496673;28;20435;-90
2023/12/05 16:07:10;;;;;;;69.95;30.20;;;;;;;;;;8496306;28;20051;-89
2023/12/05 16:11:15;;;;;;;67.88;29.25;;;;;;;;;;8496144;28;20063;-90
2023/12/05 16:15:18;;;;;;;68.70;30.65;;;;;;;;;;8496111;27;20221;-90
2023/12/05 16:19:21;;;;;;;73.13;34.30;;;;;;;;;;8502049;27;20553;-90
2023/12/05 16:23:29;;;;;;;85.00;38.03;;;;;;;;;;8502169;27;20043;-90
2023/12/05 16:27:32;;;;;;;63.97;26.88;;;;;;;;;;8502627;27;20050;-88
2023/12/05 16:31:36;;;;;;;57.53;26.45;;;;;;;;;;8502486;27;20055;-90
2023/12/05 16:35:38;;;;;;;63.40;25.50;;;;;;;;;;8501889;27;20246;-91
2023/12/05 16:39:44;;;;;;;66.50;30.27;;;;;;;;;;8501972;27;20054;-89
2023/12/05 16:43:47;;;;;;;75.32;32.38;;;;;;;;;;8502738;27;20050;-91
2023/12/05 16:47:57;;;;;;;58.55;23.02;;;;;;;;;;8501490;27;20133;-90
2023/12/05 16:52:00;;;;;;;95.70;38.92;;;;;;;;;;8501508;27;20092;-90
2023/12/05 16:56:11;;;;;;;135.18;58.55;;;;;;;;;;8510549;27;20047;-91
2023/12/05 17:00:16;;;;;;;136.18;50.55;;;;;;;;;;8502642;27;20525;-90
2023/12/05 17:04:20;;;;;;;117.25;48.88;;;;;;;;;;8501172;27;20517;-90
2023/12/05 17:08:23;;;;;;;271.52;86.32;;;;;;;;;;8500986;27;20058;-91
2023/12/05 17:12:27;;;;;;;113.75;44.88;;;;;;;;;;8482801;27;20051;-89
2023/12/05 17:16:30;;;;;;;75.43;30.77;;;;;;;;;;8500751;27;20510;-89
2023/12/05 17:20:34;;;;;;;153.10;50.90;;;;;;;;;;8500398;27;20047;-91
2023/12/05 17:24:37;;;;;;;72.95;31.13;;;;;;;;;;8500429;27;20126;-90
2023/12/05 17:28:41;;;;;;;153.45;47.75;;;;;;;;;;8500040;27;20564;-90
2023/12/05 17:32:45;;;;;;;95.70;34.90;;;;;;;;;;8500488;27;20055;-90
2023/12/05 17:36:48;;;;;;;174.95;60.28;;;;;;;;;;8499997;27;20115;-89
2023/12/05 17:40:52;;;;;;;135.32;50.13;;;;;;;;;;8499781;27;20047;-90
2023/12/05 17:44:56;;;;;;;86.28;37.20;;;;;;;;;;8499773;27;20137;-90
2023/12/05 17:49:00;;;;;;;341.40;111.88;;;;;;;;;;8499665;27;20542;-89
2023/12/05 17:53:04;;;;;;;229.90;71.53;;;;;;;;;;8499736;27;20038;-90
2023/12/05 17:57:08;;;;;;;245.30;78.60;;;;;;;;;;8499489;27;20046;-90
2023/12/05 18:01:13;;;;;;;128.68;44.90;;;;;;;;;;8481297;27;20050;-90
2023/12/05 18:05:17;;;;;;;106.32;44.10;;;;;;;;;;8482049;27;20493;-90
2023/12/05 18:09:20;;;;;;;85.30;37.03;;;;;;;;;;8479307;27;20449;-91
2023/12/05 18:13:24;;;;;;;152.40;52.92;;;;;;;;;;8499894;27;20468;-92
2023/12/05 18:17:30;;;;;;;100.88;42.83;;;;;;;;;;8501102;27;20048;-90
2023/12/05 18:21:34;;;;;;;103.68;47.85;;;;;;;;;;8481164;28;20047;-92
2023/12/05 18:25:38;;;;;;;175.73;72.97;;;;;;;;;;8448865;28;20127;-93
2023/12/05 18:29:43;;;;;;;142.20;57.55;;;;;;;;;;8466042;28;20127;-91
2023/12/05 18:33:49;;;;;;;63.20;37.78;;;;;;;;;;8464927;28;20085;-92
2023/12/05 18:37:52;;;;;;;85.45;34.20;;;;;;;;;;8468095;28;20502;-91
2023/12/05 18:41:57;;;;;;;67.57;31.73;;;;;;;;;;8470089;28;20044;-91
2023/12/05 18:46:05;;;;;;;73.43;30.50;;;;;;;;;;8465713;28;20414;-91
2023/12/05 18:50:14;;;;;;;117.35;40.85;;;;;;;;;;8465634;28;20517;-91
2023/12/05 18:54:18;;;;;;;61.75;27.65;;;;;;;;;;8466915;28;20063;-91
2023/12/05 18:58:23;;;;;;;46.13;21.50;;;;;;;;;;8466598;28;20067;-91
2023/12/05 19:02:28;;;;;;;23.65;12.25;;;;;;;;;;8465207;28;20142;-90
2023/12/05 19:06:37;;;;;;;87.70;31.38;;;;;;;;;;8464210;28;20111;-91
2023/12/05 19:10:41;;;;;;;87.55;36.80;;;;;;;;;;8463918;28;20050;-91
2023/12/05 19:14:48;;;;;;;225.27;67.55;;;;;;;;;;8463364;28;20462;-90
2023/12/05 19:18:53;;;;;;;239.98;67.88;;;;;;;;;;8463587;28;20434;-91
2023/12/05 19:23:00;;;;;;;217.32;67.50;;;;;;;;;;8463515;28;20134;-89
2023/12/05 19:27:07;;;;;;;732.17;209.38;;;;;;;;;;8463439;28;20039;-91
2023/12/05 19:31:13;;;;;;;563.53;155.60;;;;;;;;;;8464508;28;20507;-90
2023/12/05 19:35:18;;;;;;;139.13;49.63;;;;;;;;;;8463014;28;20047;-90
2023/12/05 19:39:43;;;;;;;109.78;33.28;;;;;;;;;;8450347;28;20121;-91
2023/12/05 19:43:52;;;;;;;78.95;30.25;;;;;;;;;;8449875;28;20071;-89
2023/12/05 19:48:24;;;;;;;113.43;35.60;;;;;;;;;;8467654;28;20094;-90
2023/12/05 19:52:29;;;;;;;291.60;80.32;;;;;;;;;;8451384;28;20054;-89
2023/12/05 19:56:36;;;;;;;169.30;44.72;;;;;;;;;;8469468;28;20052;-89
2023/12/05 20:00:42;;;;;;;158.57;43.45;;;;;;;;;;8469621;28;20070;-88
2023/12/05 20:04:47;;;;;;;83.63;33.83;;;;;;;;;;8468964;28;20536;-88
2023/12/05 20:08:52;;;;;;;141.38;57.67;;;;;;;;;;8469320;28;20051;-89
2023/12/05 20:13:00;;;;;;;185.10;59.15;;;;;;;;;;8450763;28;20088;-90
2023/12/05 20:17:06;;;;;;;223.52;82.00;;;;;;;;;;8468748;28;20054;-89
2023/12/05 20:21:13;;;;;;;111.28;36.42;;;;;;;;;;8468409;28;20047;-89
2023/12/05 20:25:18;;;;;;;93.65;33.58;;;;;;;;;;8487466;27;20043;-90
2023/12/05 20:29:27;;;;;;;73.45;30.23;;;;;;;;;;8503252;27;20498;-90
2023/12/05 20:33:31;;;;;;;219.80;61.67;;;;;;;;;;8502995;27;20047;-90
2023/12/05 20:37:36;;;;;;;85.65;33.40;;;;;;;;;;8502177;27;20039;-90
2023/12/05 20:41:40;;;;;;;156.73;53.53;;;;;;;;;;8483646;27;20077;-90
2023/12/05 20:45:47;;;;;;;154.63;43.28;;;;;;;;;;8501792;27;20054;-90
2023/12/05 20:49:50;;;;;;;179.80;52.55;;;;;;;;;;8501693;27;20092;-90
2023/12/05 20:53:56;;;;;;;407.63;113.95;;;;;;;;;;8495299;27;20340;-92
2023/12/05 20:58:00;;;;;;;136.35;49.63;;;;;;;;;;8520046;27;20042;-90
2023/12/05 21:02:10;;;;;;;89.47;33.08;;;;;;;;;;8511716;27;20406;-91
2023/12/05 21:06:14;;;;;;;196.32;61.58;;;;;;;;;;8487171;27;20057;-91
2023/12/05 21:10:17;;;;;;;73.43;28.63;;;;;;;;;;8481223;27;20039;-89
2023/12/05 21:14:20;;;;;;;121.20;42.33;;;;;;;;;;8523452;27;20078;-90
2023/12/05 21:18:25;;;;;;;81.93;32.72;;;;;;;;;;8534945;27;20120;-90
2023/12/05 21:22:28;;;;;;;163.20;49.95;;;;;;;;;;8535100;27;20054;-88
2023/12/05 21:26:31;;;;;;;70.18;34.90;;;;;;;;;;8534971;27;20046;-88
2023/12/05 21:30:34;;;;;;;76.93;33.50;;;;;;;;;;8534615;27;20046;-89
2023/12/05 21:34:42;;;;;;;132.93;44.67;;;;;;;;;;8534317;27;20049;-90
2023/12/05 21:38:45;;;;;;;74.82;30.33;;;;;;;;;;8534274;27;20398;-89
2023/12/05 21:42:48;;;;;;;78.15;28.55;;;;;;;;;;8533924;27;20050;-89
2023/12/05 21:46:50;;;;;;;79.00;31.48;;;;;;;;;;8515369;27;20039;-88
2023/12/05 21:50:56;;;;;;;74.28;30.80;;;;;;;;;;8533636;27;20047;-88
2023/12/05 21:54:59;;;;;;;75.75;31.73;;;;;;;;;;8533606;27;20091;-88
2023/12/05 21:59:02;;;;;;;71.70;28.85;;;;;;;;;;8533501;27;20073;-88
2023/12/05 22:03:05;;;;;;;58.78;26.52;;;;;;;;;;8533142;27;20050;-88
2023/12/05 22:07:09;;;;;;;52.38;23.38;;;;;;;;;;8533127;27;20072;-88
2023/12/05 22:11:13;;;;;;;57.67;23.73;;;;;;;;;;8533078;27;20039;-88
2023/12/05 22:15:16;;;;;;;41.25;21.25;;;;;;;;;;8531751;27;20080;-88
2023/12/05 22:19:19;;;;;;;51.08;24.48;;;;;;;;;;8532792;27;20474;-90
2023/12/05 22:23:24;;;;;;;44.78;22.20;;;;;;;;;;8532596;27;20062;-89
2023/12/05 22:27:27;;;;;;;55.72;24.48;;;;;;;;;;8532943;27;20095;-89
2023/12/05 22:31:31;;;;;;;54.63;27.17;;;;;;;;;;8532430;27;20038;-89
2023/12/05 22:35:34;;;;;;;57.05;22.70;;;;;;;;;;8532372;27;20047;-90
2023/12/05 22:39:40;;;;;;;41.60;18.58;;;;;;;;;;8532260;27;20070;-89
2023/12/05 22:43:43;;;;;;;52.67;23.17;;;;;;;;;;8532221;27;20589;-89
2023/12/05 22:47:46;;;;;;;56.53;24.05;;;;;;;;;;8531994;27;20486;-89
2023/12/05 22:51:49;;;;;;;57.75;25.05;;;;;;;;;;8531981;27;20073;-89
2023/12/05 22:55:54;;;;;;;60.47;26.73;;;;;;;;;;8531642;27;20049;-88
2023/12/05 22:59:57;;;;;;;61.53;27.85;;;;;;;;;;8531449;27;20126;-89
2023/12/05 23:04:00;;;;;;;72.07;26.73;;;;;;;;;;8531621;27;20122;-89
2023/12/05 23:08:02;;;;;;;64.00;28.95;;;;;;;;;;8531503;27;20046;-89
2023/12/05 23:12:08;;;;;;;75.57;28.55;;;;;;;;;;8531402;27;20070;-89
2023/12/05 23:16:11;;;;;;;57.35;27.15;;;;;;;;;;8531225;27;20059;-89
2023/12/05 23:20:14;;;;;;;65.35;30.80;;;;;;;;;;8531144;27;20149;-88
2023/12/05 23:24:17;;;;;;;70.00;31.48;;;;;;;;;;8531147;27;20047;-88
2023/12/05 23:28:22;;;;;;;68.22;28.00;;;;;;;;;;8550760;27;20067;-88
2023/12/05 23:32:25;;;;;;;56.30;25.13;;;;;;;;;;8552992;27;20074;-90
2023/12/05 23:36:27;;;;;;;61.75;25.33;;;;;;;;;;8532178;27;20038;-89
2023/12/05 23:40:30;;;;;;;67.80;26.55;;;;;;;;;;8531803;27;20035;-89
2023/12/05 23:44:35;;;;;;;64.43;24.42;;;;;;;;;;8530966;27;20047;-89
2023/12/05 23:48:38;;;;;;;58.67;23.95;;;;;;;;;;8530836;27;20123;-90
2023/12/05 23:52:41;;;;;;;63.33;24.67;;;;;;;;;;8530646;27;20125;-89
2023/12/05 23:56:44;;;;;;;51.28;23.70;;;;;;;;;;8530743;27;20050;-90
